Time;durP1;ratioP1;P1;durP2;ratioP2;P2;SDS_P1;SDS_P2;PMS_P1;PMS_P2;Temp;Humidity;BMP_temperature;BMP_pressure;BME280_temperature;BME280_humidity;BME280_pressure;Samples;Min_cycle;Max_cycle;Signal;HPM_P1;HPM_P2
2022/03/21 00:02:14;;;;;;;12.38;7.88;;;3.30;99.90;;;;;;5112481;28;20044;-72
2022/03/21 00:04:46;;;;;;;10.68;7.63;;;3.30;99.90;;;;;;5112351;28;20490;-72
2022/03/21 00:07:18;;;;;;;12.07;8.30;;;3.20;99.90;;;;;;5112318;28;20581;-70
2022/03/21 00:09:50;;;;;;;12.00;7.57;;;3.20;99.90;;;;;;5095005;28;20032;-71
2022/03/21 00:12:21;;;;;;;10.90;7.82;;;3.10;99.90;;;;;;5094041;28;20138;-71
2022/03/21 00:14:53;;;;;;;13.13;8.60;;;3.00;99.90;;;;;;5094952;28;20067;-72
2022/03/21 00:17:25;;;;;;;13.13;9.10;;;2.90;99.90;;;;;;5093741;28;20040;-73
2022/03/21 00:19:56;;;;;;;11.68;7.70;;;2.90;99.90;;;;;;5112227;28;20498;-71
2022/03/21 00:22:28;;;;;;;13.02;8.63;;;2.80;99.90;;;;;;5111750;28;20069;-71
2022/03/21 00:25:00;;;;;;;12.57;8.63;;;2.80;99.90;;;;;;5093842;28;20050;-72
2022/03/21 00:27:33;;;;;;;11.13;7.63;;;2.80;99.90;;;;;;5093879;28;20049;-72
2022/03/21 00:30:09;;;;;;;14.07;9.95;;;2.70;99.90;;;;;;5093701;28;20043;-72
2022/03/21 00:32:42;;;;;;;14.40;8.20;;;2.70;99.90;;;;;;5077602;28;20134;-72
2022/03/21 00:35:14;;;;;;;12.15;8.20;;;2.60;99.90;;;;;;5093774;28;20130;-71
2022/03/21 00:37:47;;;;;;;12.55;8.80;;;2.70;99.90;;;;;;5111790;28;20637;-72
2022/03/21 00:40:16;;;;;;;14.63;9.45;;;2.60;99.90;;;;;;5076958;28;20050;-72
2022/03/21 00:42:50;;;;;;;14.05;9.65;;;2.50;99.90;;;;;;5094259;28;20089;-71
2022/03/21 00:45:26;;;;;;;13.13;9.35;;;2.50;99.90;;;;;;5077720;28;20126;-71
2022/03/21 00:47:58;;;;;;;14.63;9.52;;;2.40;99.90;;;;;;5111999;28;20058;-72
2022/03/21 00:50:30;;;;;;;13.65;8.75;;;2.40;99.90;;;;;;5094679;28;20043;-72
2022/03/21 00:53:01;;;;;;;12.30;8.60;;;2.40;99.90;;;;;;5077363;28;20050;-71
2022/03/21 00:55:33;;;;;;;15.88;9.82;;;2.40;99.90;;;;;;5094555;28;20050;-72
2022/03/21 00:58:00;;;;;;;12.90;9.77;;;2.40;99.90;;;;;;5093305;28;20043;-71
2022/03/21 01:00:32;;;;;;;14.07;9.90;;;2.30;99.90;;;;;;5077581;28;20405;-72
2022/03/21 01:03:04;;;;;;;13.20;8.57;;;2.30;99.90;;;;;;5111460;28;20043;-71
2022/03/21 01:05:36;;;;;;;14.32;8.77;;;2.30;99.90;;;;;;5111657;28;20376;-72
2022/03/21 01:08:08;;;;;;;11.65;8.93;;;2.30;99.90;;;;;;5094606;28;20044;-72
2022/03/21 01:10:39;;;;;;;11.95;8.68;;;2.20;99.90;;;;;;5111668;28;20472;-71
2022/03/21 01:13:11;;;;;;;12.32;8.98;;;2.10;99.90;;;;;;5093222;28;20043;-72
2022/03/21 01:15:43;;;;;;;11.25;8.20;;;2.10;99.90;;;;;;5093423;28;20150;-72
2022/03/21 01:18:15;;;;;;;12.30;9.45;;;2.10;99.90;;;;;;5094281;28;20039;-71
2022/03/21 01:20:47;;;;;;;14.40;8.95;;;2.10;99.90;;;;;;5094198;28;20486;-71
2022/03/21 01:23:19;;;;;;;10.93;7.82;;;2.00;99.90;;;;;;5094113;28;20104;-71
2022/03/21 01:25:50;;;;;;;12.25;8.32;;;1.90;99.90;;;;;;5094267;28;20039;-72
2022/03/21 01:28:22;;;;;;;13.07;8.18;;;1.90;99.90;;;;;;5111448;28;20509;-71
2022/03/21 01:30:54;;;;;;;13.68;8.60;;;1.90;99.90;;;;;;5093359;28;20047;-71
2022/03/21 01:33:27;;;;;;;12.68;9.02;;;1.90;99.90;;;;;;5076864;28;20042;-71
2022/03/21 01:35:53;;;;;;;13.27;8.63;;;1.90;99.90;;;;;;5076376;28;20135;-71
2022/03/21 01:38:25;;;;;;;13.57;9.15;;;1.80;99.90;;;;;;5111340;28;20490;-72
2022/03/21 01:40:57;;;;;;;29.63;11.27;;;1.80;99.90;;;;;;5094151;28;20058;-71
2022/03/21 01:43:28;;;;;;;16.75;9.93;;;1.80;99.90;;;;;;5111171;28;20043;-71
2022/03/21 01:46:00;;;;;;;15.05;9.52;;;1.70;99.90;;;;;;5077146;28;20044;-71
2022/03/21 01:48:32;;;;;;;15.45;10.25;;;1.70;99.90;;;;;;5094166;28;20064;-71
2022/03/21 01:50:59;;;;;;;18.25;10.25;;;1.70;99.90;;;;;;5093063;28;20138;-72
2022/03/21 01:56:16;;;;;;;12.93;8.40;;;1.70;99.90;;;;;;5096599;28;20393;-71
2022/03/21 01:58:48;;;;;;;10.98;8.20;;;1.70;99.90;;;;;;5114878;28;20126;-72
2022/03/21 02:01:20;;;;;;;12.05;7.75;;;1.70;99.90;;;;;;5114322;28;20050;-71
2022/03/21 02:03:52;;;;;;;12.20;8.85;;;1.60;99.90;;;;;;5096561;28;20427;-72
2022/03/21 02:06:25;;;;;;;14.75;8.55;;;1.60;99.90;;;;;;5079773;28;20062;-72
2022/03/21 02:08:58;;;;;;;13.45;8.90;;;1.60;99.90;;;;;;5096904;28;20447;-72
2022/03/21 02:11:31;;;;;;;12.75;8.23;;;1.50;99.90;;;;;;5114185;28;20050;-72
2022/03/21 02:14:05;;;;;;;12.55;7.80;;;1.50;99.90;;;;;;5095412;28;20035;-72
2022/03/21 02:16:38;;;;;;;;;;;1.50;99.90;;;;;;5114379;28;20040;-71
2022/03/21 02:19:16;;;;;;;11.68;8.10;;;1.50;99.90;;;;;;5113768;28;20036;-72
2022/03/21 02:21:58;;;;;;;13.18;7.97;;;1.40;99.90;;;;;;5113932;28;20035;-71
2022/03/21 02:24:57;;;;;;;16.05;8.68;;;1.40;99.90;;;;;;5079251;28;20067;-72
2022/03/21 02:27:32;;;;;;;13.40;8.30;;;1.40;99.90;;;;;;5096467;28;20061;-73
2022/03/21 02:30:06;;;;;;;13.18;7.68;;;1.30;99.90;;;;;;5095483;28;20598;-72
2022/03/21 02:32:37;;;;;;;13.80;8.35;;;1.30;99.90;;;;;;5096177;28;20131;-72
2022/03/21 02:35:10;;;;;;;14.05;9.20;;;1.30;99.90;;;;;;5079143;28;20035;-71
2022/03/21 02:37:45;;;;;;;12.18;8.40;;;1.20;99.90;;;;;;5113486;28;20055;-72
2022/03/21 02:40:17;;;;;;;11.70;8.15;;;1.20;99.90;;;;;;5113803;28;20036;-71
2022/03/21 02:42:50;;;;;;;14.05;8.80;;;1.20;99.90;;;;;;5095898;28;20046;-71
2022/03/21 02:45:21;;;;;;;13.10;8.93;;;1.10;99.90;;;;;;5095184;28;20046;-72
2022/03/21 02:47:53;;;;;;;13.60;8.73;;;1.10;99.90;;;;;;5113291;28;20046;-71
2022/03/21 02:50:41;;;;;;;12.10;8.15;;;1.00;99.90;;;;;;5078844;28;20130;-70
2022/03/21 02:53:14;;;;;;;14.23;7.95;;;1.00;99.90;;;;;;5113074;28;20043;-72
2022/03/21 02:55:46;;;;;;;15.18;9.15;;;1.00;99.90;;;;;;5113648;28;20127;-72
2022/03/21 02:58:18;;;;;;;28.10;9.43;;;1.00;99.90;;;;;;5095736;28;20050;-73
2022/03/21 03:00:50;;;;;;;33.30;12.15;;;1.00;99.90;;;;;;5094746;28;20058;-72
2022/03/21 03:03:21;;;;;;;31.98;11.20;;;1.00;99.90;;;;;;5095489;28;20508;-71
2022/03/21 03:05:53;;;;;;;57.15;11.52;;;0.90;99.90;;;;;;5095625;28;20500;-72
2022/03/21 03:08:25;;;;;;;50.58;11.25;;;0.90;99.90;;;;;;5112885;28;20053;-72
2022/03/21 03:10:57;;;;;;;29.05;8.95;;;0.90;99.90;;;;;;5078461;28;20058;-72
2022/03/21 03:13:28;;;;;;;15.02;8.32;;;0.90;99.90;;;;;;5094196;28;20048;-72
2022/03/21 03:16:00;;;;;;;16.98;9.10;;;0.90;99.90;;;;;;5095577;28;20507;-72
2022/03/21 03:18:32;;;;;;;12.68;8.32;;;0.80;99.90;;;;;;5112725;28;20043;-71
2022/03/21 03:20:59;;;;;;;18.85;8.45;;;0.80;99.90;;;;;;5094560;28;20134;-71
2022/03/21 03:23:32;;;;;;;12.48;9.13;;;0.80;99.90;;;;;;5094104;28;20050;-72
2022/03/21 03:26:05;;;;;;;12.98;8.90;;;0.80;99.90;;;;;;5112701;28;20126;-73
2022/03/21 03:28:38;;;;;;;15.43;8.32;;;0.80;99.90;;;;;;5112509;28;20502;-72
2022/03/21 03:31:12;;;;;;;13.88;8.00;;;0.80;99.90;;;;;;5095201;28;20050;-72
2022/03/21 03:33:45;;;;;;;14.18;8.52;;;0.70;99.90;;;;;;5093814;28;20051;-71
2022/03/21 03:36:17;;;;;;;13.38;9.15;;;0.70;99.90;;;;;;5111779;27;20053;-73
2022/03/21 03:38:51;;;;;;;14.05;8.05;;;0.60;99.90;;;;;;5094157;28;20046;-71
2022/03/21 03:41:23;;;;;;;14.27;8.90;;;0.60;99.90;;;;;;5112356;28;20044;-72
2022/03/21 03:43:55;;;;;;;14.20;8.55;;;0.60;99.90;;;;;;5094675;28;20486;-72
2022/03/21 03:46:27;;;;;;;14.32;8.80;;;0.60;99.90;;;;;;5112169;28;20045;-72
2022/03/21 03:48:58;;;;;;;13.02;8.75;;;0.60;99.90;;;;;;5112188;28;20048;-72
2022/03/21 03:51:30;;;;;;;12.75;8.70;;;0.60;99.90;;;;;;5112070;28;20509;-71
2022/03/21 03:53:57;;;;;;;12.50;8.00;;;0.50;99.90;;;;;;5093725;28;20046;-72
2022/03/21 03:56:29;;;;;;;14.27;8.43;;;0.50;99.90;;;;;;5111986;28;20054;-72
2022/03/21 03:59:00;;;;;;;14.73;8.57;;;0.50;99.90;;;;;;5111867;28;20035;-72
2022/03/21 04:01:32;;;;;;;19.48;9.00;;;0.50;99.90;;;;;;5112059;28;20035;-72
2022/03/21 04:04:04;;;;;;;18.75;9.02;;;0.50;99.90;;;;;;5111857;28;20469;-71
2022/03/21 04:06:31;;;;;;;13.75;8.38;;;0.50;99.90;;;;;;5093771;28;20139;-72
2022/03/21 04:09:03;;;;;;;14.23;8.35;;;0.50;99.90;;;;;;5077699;28;20054;-71
2022/03/21 04:11:35;;;;;;;15.02;8.15;;;0.50;99.90;;;;;;5112245;28;20084;-72
2022/03/21 04:14:06;;;;;;;14.30;8.68;;;0.40;99.90;;;;;;5077351;28;20139;-72
2022/03/21 04:16:43;;;;;;;14.57;9.07;;;0.40;99.90;;;;;;5111352;28;20049;-71
2022/03/21 04:19:11;;;;;;;13.82;9.48;;;0.40;99.90;;;;;;5093717;28;20115;-72
2022/03/21 04:21:43;;;;;;;10.25;7.82;;;0.30;99.90;;;;;;5111657;28;20573;-72
2022/03/21 04:24:15;;;;;;;11.35;7.53;;;0.30;99.90;;;;;;5093501;28;20036;-72
2022/03/21 04:26:46;;;;;;;15.90;9.55;;;0.30;99.90;;;;;;5077732;28;20093;-71
2022/03/21 04:29:18;;;;;;;12.57;7.90;;;0.30;99.90;;;;;;5111993;28;20675;-71
2022/03/21 04:31:50;;;;;;;13.65;7.82;;;0.20;99.90;;;;;;5093787;28;20519;-72
2022/03/21 04:34:22;;;;;;;15.43;9.25;;;0.10;99.90;;;;;;5112284;28;20142;-71
2022/03/21 04:36:54;;;;;;;14.82;8.35;;;0.00;99.90;;;;;;5078222;28;20051;-72
2022/03/21 04:39:26;;;;;;;14.85;8.70;;;0.00;99.90;;;;;;5081774;28;20038;-71
2022/03/21 04:41:58;;;;;;;13.35;8.65;;;0.00;99.90;;;;;;5091743;28;20488;-72
2022/03/21 04:44:29;;;;;;;15.80;8.73;;;0.00;99.90;;;;;;5081909;28;20058;-71
2022/03/21 04:47:01;;;;;;;15.45;9.25;;;-0.10;99.90;;;;;;5072250;28;20047;-72
2022/03/21 04:49:33;;;;;;;14.57;8.95;;;-0.10;99.90;;;;;;5091507;28;20038;-73
2022/03/21 04:52:06;;;;;;;12.95;8.30;;;-0.10;99.90;;;;;;5079866;28;20040;-71
2022/03/21 04:54:38;;;;;;;15.27;9.05;;;-0.10;99.90;;;;;;5087583;28;20032;-72
2022/03/21 04:57:12;;;;;;;16.88;9.63;;;0.00;99.90;;;;;;5083408;28;20387;-71
2022/03/21 04:59:43;;;;;;;15.68;9.52;;;0.00;99.90;;;;;;5089888;28;20058;-73
2022/03/21 05:02:16;;;;;;;12.82;8.82;;;0.00;99.90;;;;;;5090746;28;20036;-72
2022/03/21 05:04:48;;;;;;;15.52;9.25;;;0.00;99.90;;;;;;5054836;28;20036;-72
2022/03/21 05:07:19;;;;;;;15.93;9.13;;;0.00;99.90;;;;;;5074092;28;20044;-72
2022/03/21 05:09:47;;;;;;;16.50;10.80;;;0.00;99.90;;;;;;5091265;28;20044;-73
2022/03/21 05:12:20;;;;;;;16.02;9.50;;;-0.10;99.90;;;;;;5074703;28;20027;-71
2022/03/21 05:14:52;;;;;;;17.73;10.77;;;-0.10;99.90;;;;;;5082329;28;20127;-71
2022/03/21 05:17:28;;;;;;;15.95;9.63;;;-0.10;99.90;;;;;;5090280;28;20042;-72
2022/03/21 05:20:01;;;;;;;14.93;9.65;;;-0.10;99.90;;;;;;5072324;28;20046;-72
2022/03/21 05:22:33;;;;;;;16.75;10.13;;;-0.10;99.90;;;;;;5092270;28;20046;-71
2022/03/21 05:30:58;;;;;;;18.75;10.57;;;-0.20;99.90;;;;;;5090573;28;20044;-72
2022/03/21 05:36:27;;;;;;;16.70;10.93;;;-0.20;99.90;;;;;;5076010;28;20040;-72
2022/03/21 05:38:55;;;;;;;19.70;11.18;;;-0.20;99.90;;;;;;5092473;28;20068;-71
2022/03/21 05:41:27;;;;;;;18.08;10.32;;;-0.20;99.90;;;;;;5092656;28;20044;-72
2022/03/21 05:43:59;;;;;;;19.38;11.88;;;-0.20;99.90;;;;;;5094638;28;20028;-73
2022/03/21 05:46:31;;;;;;;15.82;10.23;;;-0.20;99.90;;;;;;5114259;28;20131;-73
2022/03/21 05:49:03;;;;;;;20.25;10.85;;;-0.20;99.90;;;;;;5095736;28;20643;-72
2022/03/21 05:51:40;;;;;;;14.20;9.75;;;0.00;99.90;;;;;;5113422;28;20061;-72
2022/03/21 05:54:13;;;;;;;18.83;11.18;;;0.00;99.90;;;;;;5079434;28;20052;-72
2022/03/21 05:56:45;;;;;;;18.13;10.15;;;0.00;99.90;;;;;;5076748;28;20409;-72
2022/03/21 06:02:08;;;;;;;17.25;9.77;;;0.00;99.90;;;;;;5087348;28;20115;-72
2022/03/21 06:04:40;;;;;;;24.92;10.75;;;-0.10;99.90;;;;;;5074851;28;20067;-74
2022/03/21 06:07:12;;;;;;;20.75;10.25;;;-0.10;99.90;;;;;;5082634;28;20544;-72
2022/03/21 06:09:44;;;;;;;20.10;10.52;;;-0.10;99.90;;;;;;5056953;28;20144;-72
2022/03/21 06:12:15;;;;;;;19.75;9.60;;;-0.20;99.90;;;;;;5093642;28;20050;-72
2022/03/21 06:14:47;;;;;;;17.95;9.98;;;-0.20;99.90;;;;;;5074999;28;20044;-72
2022/03/21 06:17:19;;;;;;;17.17;10.00;;;-0.20;99.90;;;;;;5096767;28;20131;-73
2022/03/21 06:19:51;;;;;;;17.83;9.30;;;-0.20;99.90;;;;;;5105357;28;20044;-72
2022/03/21 06:22:23;;;;;;;21.30;10.70;;;-0.20;99.90;;;;;;5071842;28;20036;-72
2022/03/21 06:24:55;;;;;;;19.38;9.73;;;-0.20;99.90;;;;;;5079262;28;20059;-72
2022/03/21 06:27:27;;;;;;;18.00;10.05;;;-0.10;99.90;;;;;;5083964;28;20040;-71
2022/03/21 06:29:59;;;;;;;15.95;10.23;;;-0.10;99.90;;;;;;5076815;28;20035;-71
2022/03/21 06:32:30;;;;;;;17.02;10.68;;;-0.10;99.90;;;;;;5078808;28;20485;-72
2022/03/21 06:35:04;;;;;;;15.77;9.95;;;0.00;99.90;;;;;;5114002;27;20052;-74
2022/03/21 06:37:37;;;;;;;16.98;10.15;;;0.10;99.90;;;;;;5103006;28;20055;-72
2022/03/21 06:40:05;;;;;;;16.33;10.40;;;0.10;99.90;;;;;;5071627;28;20700;-71
2022/03/21 06:42:37;;;;;;;19.75;11.88;;;0.10;99.90;;;;;;5077264;28;20494;-72
2022/03/21 06:45:09;;;;;;;16.52;10.80;;;0.20;99.90;;;;;;5092460;28;20577;-72
2022/03/21 06:47:41;;;;;;;17.17;11.57;;;0.20;99.90;;;;;;5074484;28;20063;-73
2022/03/21 06:50:13;;;;;;;16.75;10.27;;;0.20;99.90;;;;;;5074362;28;20040;-73
2022/03/21 06:52:44;;;;;;;15.00;9.65;;;0.30;99.90;;;;;;5073913;28;20055;-72
2022/03/21 06:55:24;;;;;;;16.73;11.35;;;0.30;99.90;;;;;;5092463;28;20524;-72
2022/03/21 06:57:56;;;;;;;16.88;11.25;;;0.30;99.90;;;;;;5074046;28;20169;-72
2022/03/21 07:00:28;;;;;;;20.33;10.50;;;0.40;99.90;;;;;;5092274;28;20118;-72
2022/03/21 07:02:59;;;;;;;22.45;10.88;;;0.40;99.90;;;;;;5074689;28;20036;-71
2022/03/21 07:05:32;;;;;;;18.80;11.80;;;0.40;99.90;;;;;;5075023;28;20044;-72
2022/03/21 07:08:04;;;;;;;17.67;11.02;;;0.50;99.90;;;;;;5092410;28;20044;-72
2022/03/21 07:10:40;;;;;;;19.75;12.07;;;0.60;99.90;;;;;;5074490;28;20405;-72
2022/03/21 07:13:07;;;;;;;21.70;13.23;;;0.60;99.90;;;;;;5056886;28;20139;-72
2022/03/21 07:15:39;;;;;;;32.40;16.67;;;0.70;99.90;;;;;;5074856;28;20517;-72
2022/03/21 07:18:08;;;;;;;26.83;16.25;;;0.70;99.90;;;;;;5057098;28;20058;-72
2022/03/21 07:20:43;;;;;;;39.08;18.67;;;0.70;99.90;;;;;;5074114;28;20044;-72
2022/03/21 07:23:15;;;;;;;35.72;21.40;;;0.70;99.90;;;;;;5073648;28;20068;-71
2022/03/21 07:25:47;;;;;;;30.38;19.75;;;0.80;99.90;;;;;;5075088;28;20043;-72
2022/03/21 07:28:18;;;;;;;32.88;20.13;;;0.80;99.90;;;;;;5092728;28;20494;-72
2022/03/21 07:30:50;;;;;;;34.03;18.73;;;0.80;99.90;;;;;;5108886;27;20132;-72
2022/03/21 07:33:22;;;;;;;32.80;22.55;;;0.90;99.90;;;;;;5082681;28;20052;-72
2022/03/21 07:35:53;;;;;;;29.00;17.98;;;0.90;99.90;;;;;;5083103;28;20044;-72
2022/03/21 07:38:25;;;;;;;29.05;17.25;;;0.90;99.90;;;;;;5076887;28;20044;-72
2022/03/21 07:40:58;;;;;;;28.67;16.27;;;1.00;99.90;;;;;;5095675;28;20111;-72
2022/03/21 07:43:30;;;;;;;27.05;16.90;;;1.10;99.90;;;;;;5068754;28;20042;-72
2022/03/21 07:48:54;;;;;;;20.73;12.75;;;1.30;99.90;;;;;;5060017;28;20032;-72
2022/03/21 07:51:25;;;;;;;20.48;13.75;;;1.40;99.90;;;;;;5096384;28;20486;-71
2022/03/21 07:53:57;;;;;;;25.23;14.18;;;1.50;99.90;;;;;;5088034;28;20050;-72
2022/03/21 07:56:29;;;;;;;21.77;12.82;;;1.50;99.90;;;;;;5074552;28;20032;-72
2022/03/21 07:59:03;;;;;;;21.48;13.55;;;1.50;99.90;;;;;;5079806;28;20411;-72
2022/03/21 08:01:34;;;;;;;19.15;12.90;;;1.50;99.90;;;;;;5087192;28;20563;-72
2022/03/21 08:04:06;;;;;;;20.00;13.85;;;1.60;99.90;;;;;;5090244;28;20028;-73
2022/03/21 08:06:38;;;;;;;20.17;13.05;;;1.70;99.90;;;;;;5103265;28;20502;-72
2022/03/21 08:09:11;;;;;;;17.80;12.35;;;1.80;99.90;;;;;;5073410;28;20048;-72
2022/03/21 08:11:42;;;;;;;20.67;12.25;;;2.00;99.90;;;;;;5066614;28;20131;-72
2022/03/21 08:14:14;;;;;;;22.52;15.02;;;2.00;99.90;;;;;;5075390;28;20401;-71
2022/03/21 08:16:46;;;;;;;18.17;11.13;;;2.20;99.90;;;;;;5080385;28;20040;-72
2022/03/21 08:19:19;;;;;;;20.27;12.32;;;2.60;99.90;;;;;;5080563;28;20444;-72
2022/03/21 08:21:54;;;;;;;21.05;12.80;;;2.90;99.90;;;;;;5068342;28;20060;-71
2022/03/21 08:24:26;;;;;;;19.10;12.68;;;3.00;99.90;;;;;;5091335;28;20235;-72
2022/03/21 08:26:58;;;;;;;17.75;11.48;;;3.10;99.90;;;;;;5073140;28;20410;-73
2022/03/21 08:29:30;;;;;;;19.38;12.90;;;3.20;99.90;;;;;;5073288;28;20107;-72
2022/03/21 08:32:02;;;;;;;19.25;13.35;;;3.20;99.90;;;;;;5090070;28;20131;-72
2022/03/21 08:34:34;;;;;;;20.65;11.65;;;3.20;99.90;;;;;;5086757;28;20054;-72
2022/03/21 08:37:06;;;;;;;19.83;11.73;;;3.20;99.90;;;;;;5082664;28;20042;-72
2022/03/21 08:39:37;;;;;;;20.90;13.07;;;3.20;99.90;;;;;;5060549;28;20043;-72
2022/03/21 08:42:09;;;;;;;24.08;14.82;;;3.30;99.90;;;;;;5063308;28;20044;-72
2022/03/21 08:44:41;;;;;;;23.08;12.73;;;3.40;99.90;;;;;;5090380;28;20046;-72
2022/03/21 08:47:13;;;;;;;34.05;21.45;;;3.60;99.90;;;;;;5087316;28;20052;-72
2022/03/21 08:49:44;;;;;;;30.13;17.48;;;3.60;99.90;;;;;;5090477;28;20036;-72
2022/03/21 08:52:17;;;;;;;20.35;13.43;;;3.80;99.90;;;;;;5102017;28;20176;-72
2022/03/21 08:54:49;;;;;;;17.98;11.15;;;3.90;99.90;;;;;;5087562;28;20044;-72
2022/03/21 08:57:21;;;;;;;20.55;13.73;;;4.10;99.90;;;;;;5075441;28;20421;-72
2022/03/21 08:59:52;;;;;;;20.83;13.65;;;4.30;99.90;;;;;;5069763;28;20036;-73
2022/03/21 09:02:24;;;;;;;19.45;13.50;;;4.50;99.90;;;;;;5078961;28;20393;-72
2022/03/21 09:04:58;;;;;;;22.60;13.85;;;4.60;99.90;;;;;;5104752;28;20131;-72
2022/03/21 09:07:30;;;;;;;18.45;13.55;;;4.80;99.90;;;;;;5070872;28;20441;-73
2022/03/21 09:10:02;;;;;;;20.02;14.05;;;5.00;99.90;;;;;;5094594;28;20047;-72
2022/03/21 09:12:34;;;;;;;20.95;12.88;;;5.10;99.90;;;;;;5084637;28;20046;-72
2022/03/21 09:15:06;;;;;;;20.75;12.52;;;5.30;99.90;;;;;;5067662;28;20043;-74
2022/03/21 09:17:32;;;;;;;17.88;12.57;;;5.40;99.90;;;;;;5094583;28;20562;-72
2022/03/21 09:20:05;;;;;;;21.13;14.10;;;5.50;99.90;;;;;;5088388;28;20047;-72
2022/03/21 09:22:37;;;;;;;20.50;13.27;;;5.60;99.90;;;;;;5096191;28;20417;-72
2022/03/21 09:25:09;;;;;;;20.85;13.00;;;5.70;99.90;;;;;;5089859;28;20040;-72
2022/03/21 09:27:38;;;;;;;18.58;12.80;;;5.80;99.90;;;;;;5068977;28;20038;-72
2022/03/21 09:30:11;;;;;;;16.98;10.10;;;5.90;99.90;;;;;;5086727;28;20635;-72
2022/03/21 09:32:43;;;;;;;14.80;10.50;;;6.10;99.90;;;;;;5077079;28;20054;-72
2022/03/21 09:35:15;;;;;;;15.45;11.07;;;6.50;99.90;;;;;;5056359;28;20135;-75
2022/03/21 09:37:47;;;;;;;17.67;12.77;;;7.00;99.90;;;;;;5072098;28;20074;-72
2022/03/21 09:40:20;;;;;;;21.50;12.52;;;7.30;99.90;;;;;;5072333;28;20059;-72
2022/03/21 09:42:52;;;;;;;17.13;12.25;;;7.40;99.90;;;;;;5082276;28;20044;-72
2022/03/21 09:45:24;;;;;;;20.15;12.55;;;7.40;99.90;;;;;;5093580;28;20425;-72
2022/03/21 09:48:11;;;;;;;18.35;13.13;;;7.40;99.90;;;;;;5077950;28;20046;-72
2022/03/21 09:50:51;;;;;;;22.42;13.60;;;7.40;99.90;;;;;;5075739;28;20121;-71
2022/03/21 09:53:25;;;;;;;19.27;13.63;;;7.50;99.90;;;;;;5076531;28;20051;-72
2022/03/21 09:55:57;;;;;;;16.17;12.23;;;7.60;99.90;;;;;;5059876;28;20036;-73
2022/03/21 09:58:30;;;;;;;17.80;12.00;;;7.60;99.60;;;;;;5075557;28;20040;-72
2022/03/21 10:01:02;;;;;;;15.70;11.60;;;7.60;98.10;;;;;;5084082;28;20502;-72
2022/03/21 10:03:35;;;;;;;18.80;12.82;;;7.70;98.20;;;;;;5088219;28;20046;-72
2022/03/21 10:06:22;;;;;;;17.83;12.55;;;7.80;97.40;;;;;;5078702;28;20138;-73
2022/03/21 10:09:08;;;;;;;17.23;12.25;;;7.90;96.60;;;;;;5064882;28;20040;-73
2022/03/21 10:11:51;;;;;;;15.45;11.32;;;8.00;96.30;;;;;;5103914;28;20131;-72
2022/03/21 10:14:27;;;;;;;19.02;12.57;;;8.00;95.90;;;;;;5093031;28;20044;-72
2022/03/21 10:16:55;;;;;;;19.73;11.98;;;8.10;95.40;;;;;;5074954;28;20062;-73
2022/03/21 10:19:44;;;;;;;17.70;12.20;;;8.20;94.90;;;;;;5083917;28;20524;-72
2022/03/21 10:22:22;;;;;;;18.30;12.60;;;8.30;94.40;;;;;;5082535;28;20040;-74
2022/03/21 10:25:03;;;;;;;17.10;12.25;;;8.40;94.00;;;;;;5087087;28;20048;-71
2022/03/21 10:27:38;;;;;;;18.85;12.10;;;8.60;93.80;;;;;;5095158;28;20040;-72
2022/03/21 10:30:21;;;;;;;19.30;12.70;;;8.60;93.00;;;;;;5084060;28;20054;-71
2022/03/21 10:32:57;;;;;;;17.98;12.57;;;8.80;92.80;;;;;;5100801;28;20246;-73
2022/03/21 10:35:30;;;;;;;18.70;12.93;;;9.00;92.80;;;;;;5068455;28;20406;-71
2022/03/21 10:38:04;;;;;;;18.95;13.00;;;9.10;90.30;;;;;;5089831;28;20048;-72
2022/03/21 10:40:40;;;;;;;19.17;12.77;;;9.30;91.40;;;;;;5058079;28;20139;-72
2022/03/21 10:43:14;;;;;;;18.33;13.07;;;9.50;90.50;;;;;;5075304;28;20101;-73
2022/03/21 10:45:54;;;;;;;17.33;12.23;;;9.70;90.40;;;;;;5074975;28;20428;-72
2022/03/21 10:48:31;;;;;;;31.13;12.85;;;9.80;90.10;;;;;;5059369;28;20047;-73
2022/03/21 10:51:00;;;;;;;18.77;12.57;;;9.90;90.60;;;;;;5087386;28;20047;-72
2022/03/21 10:53:39;;;;;;;18.15;13.05;;;10.00;89.60;;;;;;5077456;28;20474;-72
2022/03/21 10:56:11;;;;;;;18.85;13.55;;;10.10;87.40;;;;;;5071759;28;20044;-73
2022/03/21 10:58:48;;;;;;;17.83;13.05;;;10.30;88.00;;;;;;5059518;28;20226;-73
2022/03/21 11:01:25;;;;;;;17.98;13.70;;;10.40;86.90;;;;;;5092468;28;20393;-72
2022/03/21 11:04:00;;;;;;;16.63;11.73;;;10.50;86.40;;;;;;5073870;28;20138;-73
2022/03/21 11:06:28;;;;;;;17.27;12.48;;;10.70;84.60;;;;;;5092021;28;20148;-72
2022/03/21 11:09:01;;;;;;;17.55;12.52;;;10.80;82.20;;;;;;5109573;28;20213;-72
2022/03/21 11:11:34;;;;;;;17.55;13.18;;;10.80;82.80;;;;;;5094943;28;20046;-73
2022/03/21 11:14:06;;;;;;;19.58;13.27;;;10.90;80.90;;;;;;5095049;28;20036;-72
2022/03/21 11:16:35;;;;;;;14.90;11.80;;;11.00;78.80;;;;;;5080774;28;20574;-72
2022/03/21 11:19:07;;;;;;;17.50;12.63;;;11.10;80.90;;;;;;5092038;28;20040;-72
2022/03/21 11:21:41;;;;;;;17.52;13.10;;;11.20;78.60;;;;;;5063972;28;20031;-72
2022/03/21 11:24:14;;;;;;;17.58;13.00;;;11.30;77.30;;;;;;5084071;28;20063;-74
2022/03/21 11:26:52;;;;;;;;;;;11.40;77.30;;;;;;5090572;28;20122;-72
2022/03/21 11:29:44;;;;;;;20.02;13.40;;;11.60;74.00;;;;;;5064399;28;19924;-73
2022/03/21 11:32:54;;;;;;;23.23;15.82;;;11.60;74.60;;;;;;5068034;28;20047;-72
2022/03/21 11:35:28;;;;;;;17.33;13.23;;;11.70;72.10;;;;;;5095365;28;20040;-72
2022/03/21 11:38:27;;;;;;;17.92;11.98;;;11.70;70.20;;;;;;5089569;28;20044;-73
2022/03/21 11:41:10;;;;;;;17.15;13.15;;;11.70;70.30;;;;;;5053519;28;20055;-72
2022/03/21 11:43:43;;;;;;;16.48;12.20;;;11.80;70.70;;;;;;5073523;28;20038;-72
2022/03/21 11:46:31;;;;;;;;;;;11.80;69.20;;;;;;5075044;28;20047;-73
2022/03/21 11:49:05;;;;;;;16.15;12.55;;;11.90;67.20;;;;;;5072386;28;20040;-74
2022/03/21 11:51:38;;;;;;;17.73;12.65;;;12.10;65.70;;;;;;5070069;28;20036;-72
2022/03/21 11:54:26;;;;;;;16.15;11.35;;;12.20;64.90;;;;;;5058398;28;20126;-72
2022/03/21 11:57:03;;;;;;;17.20;12.60;;;12.40;63.30;;;;;;5089969;28;20031;-72
2022/03/21 11:59:34;;;;;;;18.55;12.45;;;12.50;61.60;;;;;;5097151;28;20039;-72
2022/03/21 12:02:13;;;;;;;21.45;13.98;;;12.60;60.60;;;;;;5075772;28;20051;-72
2022/03/21 12:05:02;;;;;;;17.95;11.52;;;12.60;61.60;;;;;;5073763;28;20036;-72
2022/03/21 12:07:34;;;;;;;16.67;12.18;;;12.70;60.70;;;;;;5093691;28;20028;-73
2022/03/21 12:10:07;;;;;;;19.25;12.57;;;12.80;58.90;;;;;;5082843;28;20044;-72
2022/03/21 12:12:39;;;;;;;20.35;12.57;;;12.80;57.80;;;;;;5073730;28;20494;-72
2022/03/21 12:15:18;;;;;;;15.45;12.60;;;12.90;57.90;;;;;;5091121;28;20046;-72
2022/03/21 12:17:50;;;;;;;18.02;11.70;;;13.00;56.90;;;;;;5073123;28;20043;-72
2022/03/21 12:20:23;;;;;;;14.70;11.73;;;13.10;56.90;;;;;;5086247;28;20046;-72
2022/03/21 12:23:00;;;;;;;16.05;12.02;;;13.10;56.30;;;;;;5090803;28;20046;-72
2022/03/21 12:25:32;;;;;;;17.48;11.48;;;13.20;57.60;;;;;;5053002;28;20028;-72
2022/03/21 12:31:26;;;;;;;16.83;12.55;;;13.40;56.60;;;;;;5066392;28;20045;-72
2022/03/21 12:34:33;;;;;;;15.45;11.82;;;13.50;56.90;;;;;;5072407;28;20036;-72
2022/03/21 12:37:28;;;;;;;13.68;11.85;;;13.50;55.80;;;;;;5071528;28;20052;-72
2022/03/21 12:39:56;;;;;;;18.65;14.30;;;13.60;55.70;;;;;;5072720;28;20120;-73
2022/03/21 12:42:28;;;;;;;16.83;13.50;;;13.70;55.30;;;;;;5085887;28;20504;-74
2022/03/21 12:45:00;;;;;;;15.90;12.57;;;13.70;55.10;;;;;;5072970;28;20040;-72
2022/03/21 12:47:35;;;;;;;15.02;10.75;;;13.70;54.60;;;;;;5071988;28;20402;-72
2022/03/21 12:50:07;;;;;;;14.35;12.25;;;13.80;54.40;;;;;;5057683;28;20048;-72
2022/03/21 12:52:39;;;;;;;19.67;13.27;;;13.90;54.80;;;;;;5056054;28;20442;-72
2022/03/21 12:55:15;;;;;;;18.70;11.98;;;13.90;55.40;;;;;;5087261;28;20043;-72
2022/03/21 12:58:04;;;;;;;16.58;11.98;;;14.00;54.00;;;;;;5072315;28;20097;-72
2022/03/21 13:00:39;;;;;;;16.13;11.98;;;14.10;55.00;;;;;;5071221;28;20043;-72
2022/03/21 13:03:13;;;;;;;16.48;11.95;;;14.10;53.90;;;;;;5072155;28;20062;-72
2022/03/21 13:11:28;;;;;;;20.08;14.68;;;14.20;53.80;;;;;;5090502;28;20058;-72
2022/03/21 13:14:15;;;;;;;15.70;12.52;;;14.30;53.30;;;;;;5105009;28;20048;-73
2022/03/21 13:16:51;;;;;;;14.07;11.65;;;14.40;52.10;;;;;;5105506;28;20118;-73
2022/03/21 13:19:26;;;;;;;14.20;9.73;;;14.50;52.30;;;;;;5088158;28;20048;-72
2022/03/21 13:22:04;;;;;;;16.90;11.63;;;14.50;51.60;;;;;;5072479;28;20051;-71
2022/03/21 13:24:40;;;;;;;18.90;13.20;;;14.70;49.80;;;;;;5072131;28;20046;-72
2022/03/21 13:27:14;;;;;;;19.60;12.27;;;14.70;50.30;;;;;;5105342;28;20115;-72
2022/03/21 13:29:53;;;;;;;14.88;10.65;;;14.80;50.30;;;;;;5106134;28;20123;-72
2022/03/21 13:32:25;;;;;;;15.23;10.85;;;14.80;50.70;;;;;;5071749;28;20040;-74
2022/03/21 13:34:59;;;;;;;13.95;11.15;;;14.80;50.10;;;;;;5088424;28;20135;-72
2022/03/21 13:37:32;;;;;;;12.95;10.35;;;14.80;49.00;;;;;;5088935;28;20135;-72